sensor_id;sensor_type;location;lat;lon;timestamp;P1;durP1;ratioP1;P2;durP2;ratioP2
18304;SDS011;9278;52.156;21.048;2023-04-08T00:00:10;17.08;;;10.52;;
18304;SDS011;9278;52.156;21.048;2023-04-08T00:02:40;17.67;;;10.77;;
18304;SDS011;9278;52.156;21.048;2023-04-08T00:05:09;18.35;;;10.02;;
18304;SDS011;9278;52.156;21.048;2023-04-08T00:07:37;17.13;;;9.93;;
18304;SDS011;9278;52.156;21.048;2023-04-08T00:10:05;16.98;;;9.95;;
18304;SDS011;9278;52.156;21.048;2023-04-08T00:12:34;16.38;;;10.00;;
18304;SDS011;9278;52.156;21.048;2023-04-08T00:15:04;18.55;;;10.52;;
18304;SDS011;9278;52.156;21.048;2023-04-08T00:17:33;17.67;;;10.18;;
18304;SDS011;9278;52.156;21.048;2023-04-08T00:20:03;17.63;;;9.82;;
18304;SDS011;9278;52.156;21.048;2023-04-08T00:22:32;18.02;;;9.98;;
18304;SDS011;9278;52.156;21.048;2023-04-08T00:25:01;21.30;;;9.80;;
18304;SDS011;9278;52.156;21.048;2023-04-08T00:27:32;17.35;;;10.40;;
18304;SDS011;9278;52.156;21.048;2023-04-08T00:30:00;16.05;;;9.73;;
18304;SDS011;9278;52.156;21.048;2023-04-08T00:32:29;14.65;;;10.20;;
18304;SDS011;9278;52.156;21.048;2023-04-08T00:34:57;19.30;;;10.68;;
18304;SDS011;9278;52.156;21.048;2023-04-08T00:37:27;15.90;;;9.20;;
18304;SDS011;9278;52.156;21.048;2023-04-08T00:39:56;14.45;;;8.82;;
18304;SDS011;9278;52.156;21.048;2023-04-08T00:42:24;18.00;;;9.65;;
18304;SDS011;9278;52.156;21.048;2023-04-08T00:44:53;15.73;;;9.10;;
18304;SDS011;9278;52.156;21.048;2023-04-08T00:47:22;16.02;;;9.85;;
18304;SDS011;9278;52.156;21.048;2023-04-08T00:49:51;16.42;;;9.88;;
18304;SDS011;9278;52.156;21.048;2023-04-08T00:52:19;16.02;;;9.05;;
18304;SDS011;9278;52.156;21.048;2023-04-08T00:54:49;16.77;;;10.13;;
18304;SDS011;9278;52.156;21.048;2023-04-08T00:57:17;15.25;;;8.95;;
18304;SDS011;9278;52.156;21.048;2023-04-08T00:59:46;14.93;;;9.30;;
18304;SDS011;9278;52.156;21.048;2023-04-08T01:02:17;15.48;;;9.57;;
18304;SDS011;9278;52.156;21.048;2023-04-08T01:04:51;15.85;;;9.65;;
18304;SDS011;9278;52.156;21.048;2023-04-08T01:07:26;15.27;;;9.45;;
18304;SDS011;9278;52.156;21.048;2023-04-08T01:10:01;16.10;;;9.32;;
18304;SDS011;9278;52.156;21.048;2023-04-08T01:12:31;17.08;;;9.95;;
18304;SDS011;9278;52.156;21.048;2023-04-08T01:15:04;16.95;;;10.13;;
18304;SDS011;9278;52.156;21.048;2023-04-08T01:17:34;15.75;;;9.07;;
18304;SDS011;9278;52.156;21.048;2023-04-08T01:20:04;19.67;;;10.25;;
18304;SDS011;9278;52.156;21.048;2023-04-08T01:22:37;17.83;;;10.50;;
18304;SDS011;9278;52.156;21.048;2023-04-08T01:25:15;18.73;;;10.82;;
18304;SDS011;9278;52.156;21.048;2023-04-08T01:27:48;18.15;;;10.52;;
18304;SDS011;9278;52.156;21.048;2023-04-08T01:30:21;16.98;;;10.32;;
18304;SDS011;9278;52.156;21.048;2023-04-08T01:32:52;17.83;;;10.27;;
18304;SDS011;9278;52.156;21.048;2023-04-08T01:35:22;16.33;;;9.82;;
18304;SDS011;9278;52.156;21.048;2023-04-08T01:37:51;19.73;;;11.07;;
18304;SDS011;9278;52.156;21.048;2023-04-08T01:40:21;18.45;;;10.80;;
18304;SDS011;9278;52.156;21.048;2023-04-08T01:42:51;20.55;;;11.18;;
18304;SDS011;9278;52.156;21.048;2023-04-08T01:45:22;18.58;;;10.63;;
18304;SDS011;9278;52.156;21.048;2023-04-08T01:47:50;18.40;;;10.57;;
18304;SDS011;9278;52.156;21.048;2023-04-08T01:50:20;21.10;;;11.52;;
18304;SDS011;9278;52.156;21.048;2023-04-08T01:52:49;21.15;;;11.13;;
18304;SDS011;9278;52.156;21.048;2023-04-08T01:55:19;19.27;;;11.25;;
18304;SDS011;9278;52.156;21.048;2023-04-08T01:57:48;22.52;;;12.35;;
18304;SDS011;9278;52.156;21.048;2023-04-08T02:00:20;20.38;;;11.00;;
18304;SDS011;9278;52.156;21.048;2023-04-08T02:02:52;21.47;;;11.17;;
18304;SDS011;9278;52.156;21.048;2023-04-08T02:05:22;22.02;;;11.57;;
18304;SDS011;9278;52.156;21.048;2023-04-08T02:07:50;20.20;;;11.65;;
18304;SDS011;9278;52.156;21.048;2023-04-08T02:10:18;21.88;;;11.98;;
18304;SDS011;9278;52.156;21.048;2023-04-08T02:12:47;19.48;;;11.38;;
18304;SDS011;9278;52.156;21.048;2023-04-08T02:15:17;21.63;;;11.50;;
18304;SDS011;9278;52.156;21.048;2023-04-08T02:17:47;20.33;;;11.52;;
18304;SDS011;9278;52.156;21.048;2023-04-08T02:20:20;23.07;;;11.43;;
18304;SDS011;9278;52.156;21.048;2023-04-08T02:22:52;19.20;;;11.05;;
18304;SDS011;9278;52.156;21.048;2023-04-08T02:25:27;22.73;;;11.60;;
18304;SDS011;9278;52.156;21.048;2023-04-08T02:27:56;20.00;;;11.55;;
18304;SDS011;9278;52.156;21.048;2023-04-08T02:30:28;22.80;;;11.93;;
18304;SDS011;9278;52.156;21.048;2023-04-08T02:32:57;21.90;;;12.03;;
18304;SDS011;9278;52.156;21.048;2023-04-08T02:35:30;20.73;;;11.60;;
18304;SDS011;9278;52.156;21.048;2023-04-08T02:37:58;21.20;;;11.60;;
18304;SDS011;9278;52.156;21.048;2023-04-08T02:40:28;23.92;;;12.55;;
18304;SDS011;9278;52.156;21.048;2023-04-08T02:42:58;20.25;;;10.82;;
18304;SDS011;9278;52.156;21.048;2023-04-08T02:45:28;21.80;;;12.23;;
18304;SDS011;9278;52.156;21.048;2023-04-08T02:47:59;21.45;;;11.55;;
18304;SDS011;9278;52.156;21.048;2023-04-08T02:50:27;20.25;;;11.52;;
18304;SDS011;9278;52.156;21.048;2023-04-08T02:52:57;20.73;;;10.65;;
18304;SDS011;9278;52.156;21.048;2023-04-08T02:55:26;22.00;;;11.83;;
18304;SDS011;9278;52.156;21.048;2023-04-08T02:57:54;22.97;;;11.87;;
18304;SDS011;9278;52.156;21.048;2023-04-08T03:00:23;21.50;;;10.77;;
18304;SDS011;9278;52.156;21.048;2023-04-08T03:02:52;20.25;;;10.85;;
18304;SDS011;9278;52.156;21.048;2023-04-08T03:05:21;23.27;;;11.40;;
18304;SDS011;9278;52.156;21.048;2023-04-08T03:07:50;25.80;;;11.57;;
18304;SDS011;9278;52.156;21.048;2023-04-08T03:10:19;22.80;;;11.53;;
18304;SDS011;9278;52.156;21.048;2023-04-08T03:12:47;21.00;;;11.00;;
18304;SDS011;9278;52.156;21.048;2023-04-08T03:15:15;23.13;;;11.63;;
18304;SDS011;9278;52.156;21.048;2023-04-08T03:17:43;21.57;;;10.90;;
18304;SDS011;9278;52.156;21.048;2023-04-08T03:20:16;22.10;;;11.77;;
18304;SDS011;9278;52.156;21.048;2023-04-08T03:22:44;20.07;;;11.30;;
18304;SDS011;9278;52.156;21.048;2023-04-08T03:25:12;21.60;;;11.20;;
18304;SDS011;9278;52.156;21.048;2023-04-08T03:27:40;23.93;;;11.70;;
18304;SDS011;9278;52.156;21.048;2023-04-08T03:30:09;22.30;;;11.80;;
18304;SDS011;9278;52.156;21.048;2023-04-08T03:32:37;22.17;;;12.20;;
18304;SDS011;9278;52.156;21.048;2023-04-08T03:35:06;24.30;;;12.27;;
18304;SDS011;9278;52.156;21.048;2023-04-08T03:37:36;22.53;;;11.60;;
18304;SDS011;9278;52.156;21.048;2023-04-08T03:40:04;22.10;;;11.23;;
18304;SDS011;9278;52.156;21.048;2023-04-08T03:42:34;23.57;;;11.47;;
18304;SDS011;9278;52.156;21.048;2023-04-08T03:45:02;20.90;;;11.17;;
18304;SDS011;9278;52.156;21.048;2023-04-08T03:47:31;23.07;;;11.80;;
18304;SDS011;9278;52.156;21.048;2023-04-08T03:49:59;27.13;;;14.93;;
18304;SDS011;9278;52.156;21.048;2023-04-08T03:52:27;24.00;;;13.10;;
18304;SDS011;9278;52.156;21.048;2023-04-08T03:54:57;29.97;;;14.90;;
18304;SDS011;9278;52.156;21.048;2023-04-08T03:57:25;29.43;;;14.73;;
18304;SDS011;9278;52.156;21.048;2023-04-08T03:59:53;32.90;;;17.13;;
18304;SDS011;9278;52.156;21.048;2023-04-08T04:02:21;32.63;;;16.97;;
18304;SDS011;9278;52.156;21.048;2023-04-08T04:04:51;36.53;;;19.00;;
18304;SDS011;9278;52.156;21.048;2023-04-08T04:07:19;40.30;;;21.57;;
18304;SDS011;9278;52.156;21.048;2023-04-08T04:09:47;40.87;;;22.27;;
18304;SDS011;9278;52.156;21.048;2023-04-08T04:12:20;39.10;;;20.97;;
18304;SDS011;9278;52.156;21.048;2023-04-08T04:14:49;37.37;;;19.60;;
18304;SDS011;9278;52.156;21.048;2023-04-08T04:17:17;39.73;;;20.63;;
18304;SDS011;9278;52.156;21.048;2023-04-08T04:19:45;40.93;;;20.73;;
18304;SDS011;9278;52.156;21.048;2023-04-08T04:22:13;39.17;;;21.30;;
18304;SDS011;9278;52.156;21.048;2023-04-08T04:24:45;39.17;;;20.10;;
18304;SDS011;9278;52.156;21.048;2023-04-08T04:27:14;39.00;;;19.70;;
18304;SDS011;9278;52.156;21.048;2023-04-08T04:29:44;33.80;;;17.40;;
18304;SDS011;9278;52.156;21.048;2023-04-08T04:32:12;39.97;;;18.90;;
18304;SDS011;9278;52.156;21.048;2023-04-08T04:34:41;38.40;;;19.90;;
18304;SDS011;9278;52.156;21.048;2023-04-08T04:37:10;38.70;;;18.67;;
18304;SDS011;9278;52.156;21.048;2023-04-08T04:39:39;41.43;;;20.03;;
18304;SDS011;9278;52.156;21.048;2023-04-08T04:42:07;33.83;;;16.37;;
18304;SDS011;9278;52.156;21.048;2023-04-08T04:44:35;32.67;;;15.67;;
18304;SDS011;9278;52.156;21.048;2023-04-08T04:47:05;32.00;;;15.83;;
18304;SDS011;9278;52.156;21.048;2023-04-08T04:49:33;27.63;;;14.30;;
18304;SDS011;9278;52.156;21.048;2023-04-08T04:52:01;26.37;;;13.57;;
18304;SDS011;9278;52.156;21.048;2023-04-08T04:54:29;27.30;;;14.03;;
18304;SDS011;9278;52.156;21.048;2023-04-08T04:56:57;27.73;;;14.67;;
18304;SDS011;9278;52.156;21.048;2023-04-08T04:59:26;24.63;;;13.20;;
18304;SDS011;9278;52.156;21.048;2023-04-08T05:01:54;26.73;;;13.70;;
18304;SDS011;9278;52.156;21.048;2023-04-08T05:04:24;24.53;;;12.70;;
18304;SDS011;9278;52.156;21.048;2023-04-08T05:06:53;28.03;;;13.43;;
18304;SDS011;9278;52.156;21.048;2023-04-08T05:09:21;23.57;;;11.97;;
18304;SDS011;9278;52.156;21.048;2023-04-08T05:11:49;25.67;;;12.17;;
18304;SDS011;9278;52.156;21.048;2023-04-08T05:14:17;25.10;;;13.13;;
18304;SDS011;9278;52.156;21.048;2023-04-08T05:16:46;26.53;;;12.17;;
18304;SDS011;9278;52.156;21.048;2023-04-08T05:19:14;22.67;;;11.43;;
18304;SDS011;9278;52.156;21.048;2023-04-08T05:21:43;23.57;;;12.20;;
18304;SDS011;9278;52.156;21.048;2023-04-08T05:24:11;21.80;;;11.53;;
18304;SDS011;9278;52.156;21.048;2023-04-08T05:26:39;23.57;;;11.67;;
18304;SDS011;9278;52.156;21.048;2023-04-08T05:29:08;24.27;;;11.77;;
18304;SDS011;9278;52.156;21.048;2023-04-08T05:31:36;26.15;;;11.23;;
18304;SDS011;9278;52.156;21.048;2023-04-08T05:34:05;21.47;;;11.50;;
18304;SDS011;9278;52.156;21.048;2023-04-08T05:36:33;23.30;;;11.60;;
18304;SDS011;9278;52.156;21.048;2023-04-08T05:39:02;20.33;;;11.57;;
18304;SDS011;9278;52.156;21.048;2023-04-08T05:41:31;23.15;;;11.68;;
18304;SDS011;9278;52.156;21.048;2023-04-08T05:43:59;21.38;;;11.48;;
18304;SDS011;9278;52.156;21.048;2023-04-08T05:46:27;23.10;;;11.80;;
18304;SDS011;9278;52.156;21.048;2023-04-08T05:48:55;21.83;;;11.70;;
18304;SDS011;9278;52.156;21.048;2023-04-08T05:51:24;22.07;;;11.33;;
18304;SDS011;9278;52.156;21.048;2023-04-08T05:53:52;20.50;;;10.97;;
18304;SDS011;9278;52.156;21.048;2023-04-08T05:56:21;23.60;;;11.40;;
18304;SDS011;9278;52.156;21.048;2023-04-08T05:58:49;21.87;;;11.77;;
18304;SDS011;9278;52.156;21.048;2023-04-08T06:01:18;24.17;;;12.27;;
18304;SDS011;9278;52.156;21.048;2023-04-08T06:03:46;22.00;;;11.83;;
18304;SDS011;9278;52.156;21.048;2023-04-08T06:06:15;21.23;;;10.80;;
18304;SDS011;9278;52.156;21.048;2023-04-08T06:08:43;22.60;;;11.77;;
18304;SDS011;9278;52.156;21.048;2023-04-08T06:11:12;25.20;;;13.00;;
18304;SDS011;9278;52.156;21.048;2023-04-08T06:13:42;24.30;;;11.75;;
18304;SDS011;9278;52.156;21.048;2023-04-08T06:16:11;22.87;;;11.63;;
18304;SDS011;9278;52.156;21.048;2023-04-08T06:18:40;24.00;;;11.40;;
18304;SDS011;9278;52.156;21.048;2023-04-08T06:21:08;22.30;;;11.70;;
18304;SDS011;9278;52.156;21.048;2023-04-08T06:23:37;21.27;;;11.68;;
18304;SDS011;9278;52.156;21.048;2023-04-08T06:26:05;24.00;;;11.27;;
18304;SDS011;9278;52.156;21.048;2023-04-08T06:28:33;21.93;;;11.20;;
18304;SDS011;9278;52.156;21.048;2023-04-08T06:31:03;23.23;;;11.85;;
18304;SDS011;9278;52.156;21.048;2023-04-08T06:33:31;21.40;;;11.07;;
18304;SDS011;9278;52.156;21.048;2023-04-08T06:36:00;19.55;;;11.27;;
18304;SDS011;9278;52.156;21.048;2023-04-08T06:38:29;21.30;;;11.07;;
18304;SDS011;9278;52.156;21.048;2023-04-08T06:41:00;19.88;;;11.02;;
18304;SDS011;9278;52.156;21.048;2023-04-08T06:43:30;20.73;;;10.30;;
18304;SDS011;9278;52.156;21.048;2023-04-08T06:45:58;18.17;;;9.73;;
18304;SDS011;9278;52.156;21.048;2023-04-08T06:48:28;18.88;;;10.15;;
18304;SDS011;9278;52.156;21.048;2023-04-08T06:50:56;17.67;;;9.82;;
18304;SDS011;9278;52.156;21.048;2023-04-08T06:53:26;16.77;;;9.50;;
18304;SDS011;9278;52.156;21.048;2023-04-08T06:55:56;18.75;;;10.00;;
18304;SDS011;9278;52.156;21.048;2023-04-08T06:58:24;17.05;;;9.90;;
18304;SDS011;9278;52.156;21.048;2023-04-08T07:00:53;17.80;;;10.15;;
18304;SDS011;9278;52.156;21.048;2023-04-08T07:03:21;16.50;;;9.40;;
18304;SDS011;9278;52.156;21.048;2023-04-08T07:05:51;18.42;;;10.10;;
18304;SDS011;9278;52.156;21.048;2023-04-08T07:08:20;13.60;;;8.75;;
18304;SDS011;9278;52.156;21.048;2023-04-08T07:10:48;13.60;;;7.55;;
18304;SDS011;9278;52.156;21.048;2023-04-08T07:13:18;17.45;;;9.38;;
18304;SDS011;9278;52.156;21.048;2023-04-08T07:15:46;14.57;;;8.15;;
18304;SDS011;9278;52.156;21.048;2023-04-08T07:18:14;13.13;;;8.00;;
18304;SDS011;9278;52.156;21.048;2023-04-08T07:20:42;13.75;;;8.57;;
18304;SDS011;9278;52.156;21.048;2023-04-08T07:23:13;13.55;;;8.43;;
18304;SDS011;9278;52.156;21.048;2023-04-08T07:25:41;14.35;;;8.55;;
18304;SDS011;9278;52.156;21.048;2023-04-08T07:28:09;15.00;;;9.02;;
18304;SDS011;9278;52.156;21.048;2023-04-08T07:30:37;14.02;;;7.78;;
18304;SDS011;9278;52.156;21.048;2023-04-08T07:33:06;14.30;;;8.60;;
18304;SDS011;9278;52.156;21.048;2023-04-08T07:35:34;14.88;;;8.32;;
18304;SDS011;9278;52.156;21.048;2023-04-08T07:38:03;12.45;;;7.93;;
18304;SDS011;9278;52.156;21.048;2023-04-08T07:40:36;13.05;;;8.15;;
18304;SDS011;9278;52.156;21.048;2023-04-08T07:43:04;14.30;;;7.97;;
18304;SDS011;9278;52.156;21.048;2023-04-08T07:45:32;12.55;;;7.63;;
18304;SDS011;9278;52.156;21.048;2023-04-08T07:48:00;11.77;;;7.40;;
18304;SDS011;9278;52.156;21.048;2023-04-08T07:50:28;14.93;;;8.60;;
18304;SDS011;9278;52.156;21.048;2023-04-08T07:52:56;13.52;;;8.23;;
18304;SDS011;9278;52.156;21.048;2023-04-08T07:55:25;14.43;;;8.45;;
18304;SDS011;9278;52.156;21.048;2023-04-08T07:57:54;14.60;;;8.07;;
18304;SDS011;9278;52.156;21.048;2023-04-08T08:00:22;16.67;;;8.80;;
18304;SDS011;9278;52.156;21.048;2023-04-08T08:02:51;13.65;;;8.25;;
18304;SDS011;9278;52.156;21.048;2023-04-08T08:05:19;16.23;;;8.05;;
18304;SDS011;9278;52.156;21.048;2023-04-08T08:07:48;13.07;;;7.75;;
18304;SDS011;9278;52.156;21.048;2023-04-08T08:10:16;17.20;;;8.30;;
18304;SDS011;9278;52.156;21.048;2023-04-08T08:12:44;15.02;;;9.05;;
18304;SDS011;9278;52.156;21.048;2023-04-08T08:15:14;14.13;;;8.45;;
18304;SDS011;9278;52.156;21.048;2023-04-08T08:17:42;13.57;;;8.15;;
18304;SDS011;9278;52.156;21.048;2023-04-08T08:20:11;14.75;;;9.00;;
18304;SDS011;9278;52.156;21.048;2023-04-08T08:22:39;14.80;;;8.55;;
18304;SDS011;9278;52.156;21.048;2023-04-08T08:25:22;13.25;;;7.78;;
18304;SDS011;9278;52.156;21.048;2023-04-08T08:27:51;14.68;;;8.73;;
18304;SDS011;9278;52.156;21.048;2023-04-08T08:30:22;14.00;;;8.48;;
18304;SDS011;9278;52.156;21.048;2023-04-08T08:32:51;13.07;;;8.07;;
18304;SDS011;9278;52.156;21.048;2023-04-08T08:35:20;11.52;;;7.55;;
18304;SDS011;9278;52.156;21.048;2023-04-08T08:37:48;14.15;;;8.85;;
18304;SDS011;9278;52.156;21.048;2023-04-08T08:40:16;13.95;;;8.30;;
18304;SDS011;9278;52.156;21.048;2023-04-08T08:42:48;13.70;;;8.63;;
18304;SDS011;9278;52.156;21.048;2023-04-08T08:45:18;14.30;;;8.32;;
18304;SDS011;9278;52.156;21.048;2023-04-08T08:47:47;16.73;;;8.90;;
18304;SDS011;9278;52.156;21.048;2023-04-08T08:50:17;12.80;;;8.40;;
18304;SDS011;9278;52.156;21.048;2023-04-08T08:52:48;14.52;;;8.60;;
18304;SDS011;9278;52.156;21.048;2023-04-08T08:55:17;15.10;;;8.63;;
18304;SDS011;9278;52.156;21.048;2023-04-08T08:58:06;13.52;;;8.02;;
18304;SDS011;9278;52.156;21.048;2023-04-08T09:00:35;14.85;;;8.30;;
18304;SDS011;9278;52.156;21.048;2023-04-08T09:03:18;14.20;;;8.20;;
18304;SDS011;9278;52.156;21.048;2023-04-08T09:05:49;15.15;;;8.55;;
18304;SDS011;9278;52.156;21.048;2023-04-08T09:08:28;12.70;;;7.57;;
18304;SDS011;9278;52.156;21.048;2023-04-08T09:11:09;12.15;;;8.40;;
18304;SDS011;9278;52.156;21.048;2023-04-08T09:13:39;13.20;;;8.07;;
18304;SDS011;9278;52.156;21.048;2023-04-08T09:16:07;15.20;;;8.05;;
18304;SDS011;9278;52.156;21.048;2023-04-08T09:18:39;14.63;;;8.65;;
18304;SDS011;9278;52.156;21.048;2023-04-08T09:21:10;13.18;;;8.23;;
18304;SDS011;9278;52.156;21.048;2023-04-08T09:23:40;14.13;;;8.35;;
18304;SDS011;9278;52.156;21.048;2023-04-08T09:26:10;11.82;;;7.80;;
18304;SDS011;9278;52.156;21.048;2023-04-08T09:28:40;13.73;;;8.18;;
18304;SDS011;9278;52.156;21.048;2023-04-08T09:31:19;13.02;;;7.97;;
18304;SDS011;9278;52.156;21.048;2023-04-08T09:33:51;10.98;;;7.57;;
18304;SDS011;9278;52.156;21.048;2023-04-08T09:36:20;11.98;;;7.68;;
18304;SDS011;9278;52.156;21.048;2023-04-08T09:38:49;13.45;;;7.80;;
18304;SDS011;9278;52.156;21.048;2023-04-08T09:41:18;12.88;;;8.43;;
18304;SDS011;9278;52.156;21.048;2023-04-08T09:43:49;13.57;;;7.78;;
18304;SDS011;9278;52.156;21.048;2023-04-08T09:46:24;13.15;;;7.35;;
18304;SDS011;9278;52.156;21.048;2023-04-08T09:49:00;15.98;;;8.40;;
18304;SDS011;9278;52.156;21.048;2023-04-08T09:51:35;12.57;;;8.00;;
18304;SDS011;9278;52.156;21.048;2023-04-08T09:54:12;11.82;;;7.82;;
18304;SDS011;9278;52.156;21.048;2023-04-08T09:56:46;11.82;;;8.05;;
18304;SDS011;9278;52.156;21.048;2023-04-08T09:59:21;10.40;;;7.30;;
18304;SDS011;9278;52.156;21.048;2023-04-08T10:01:54;11.05;;;7.68;;
18304;SDS011;9278;52.156;21.048;2023-04-08T10:04:28;11.43;;;7.72;;
18304;SDS011;9278;52.156;21.048;2023-04-08T10:07:00;12.32;;;8.05;;
18304;SDS011;9278;52.156;21.048;2023-04-08T10:09:32;15.10;;;8.20;;
18304;SDS011;9278;52.156;21.048;2023-04-08T10:12:03;10.55;;;7.20;;
18304;SDS011;9278;52.156;21.048;2023-04-08T10:14:32;10.68;;;7.53;;
18304;SDS011;9278;52.156;21.048;2023-04-08T10:19:55;10.75;;;7.07;;
18304;SDS011;9278;52.156;21.048;2023-04-08T10:25:30;18.88;;;10.43;;
18304;SDS011;9278;52.156;21.048;2023-04-08T10:27:59;11.02;;;7.68;;
18304;SDS011;9278;52.156;21.048;2023-04-08T10:30:38;12.05;;;8.00;;
18304;SDS011;9278;52.156;21.048;2023-04-08T10:33:11;13.05;;;7.65;;
18304;SDS011;9278;52.156;21.048;2023-04-08T10:35:43;11.60;;;7.72;;
18304;SDS011;9278;52.156;21.048;2023-04-08T10:38:15;11.65;;;7.20;;
18304;SDS011;9278;52.156;21.048;2023-04-08T10:40:44;11.45;;;7.50;;
18304;SDS011;9278;52.156;21.048;2023-04-08T10:43:14;10.27;;;7.03;;
18304;SDS011;9278;52.156;21.048;2023-04-08T10:45:42;13.98;;;7.80;;
18304;SDS011;9278;52.156;21.048;2023-04-08T10:48:15;11.73;;;7.63;;
18304;SDS011;9278;52.156;21.048;2023-04-08T10:50:52;10.50;;;7.38;;
18304;SDS011;9278;52.156;21.048;2023-04-08T10:53:25;10.27;;;6.57;;
18304;SDS011;9278;52.156;21.048;2023-04-08T10:56:02;11.30;;;6.85;;
18304;SDS011;9278;52.156;21.048;2023-04-08T10:58:31;8.63;;;6.05;;
18304;SDS011;9278;52.156;21.048;2023-04-08T11:01:03;12.40;;;6.80;;
18304;SDS011;9278;52.156;21.048;2023-04-08T11:03:33;11.38;;;6.85;;
18304;SDS011;9278;52.156;21.048;2023-04-08T11:06:05;9.73;;;6.93;;
18304;SDS011;9278;52.156;21.048;2023-04-08T11:08:34;9.45;;;6.30;;
18304;SDS011;9278;52.156;21.048;2023-04-08T11:11:03;8.85;;;6.20;;
18304;SDS011;9278;52.156;21.048;2023-04-08T11:13:34;9.32;;;6.80;;
18304;SDS011;9278;52.156;21.048;2023-04-08T11:16:03;9.75;;;6.70;;
18304;SDS011;9278;52.156;21.048;2023-04-08T11:18:43;9.02;;;6.40;;
18304;SDS011;9278;52.156;21.048;2023-04-08T11:21:15;9.63;;;6.65;;
18304;SDS011;9278;52.156;21.048;2023-04-08T11:23:43;9.95;;;6.68;;
18304;SDS011;9278;52.156;21.048;2023-04-08T11:26:12;9.40;;;6.00;;
18304;SDS011;9278;52.156;21.048;2023-04-08T11:28:42;8.93;;;6.00;;
18304;SDS011;9278;52.156;21.048;2023-04-08T11:31:11;8.23;;;5.95;;
18304;SDS011;9278;52.156;21.048;2023-04-08T11:33:43;9.13;;;5.88;;
18304;SDS011;9278;52.156;21.048;2023-04-08T11:36:16;7.97;;;5.97;;
18304;SDS011;9278;52.156;21.048;2023-04-08T11:38:45;7.82;;;5.65;;
18304;SDS011;9278;52.156;21.048;2023-04-08T11:41:14;8.07;;;5.63;;
18304;SDS011;9278;52.156;21.048;2023-04-08T11:43:53;10.65;;;6.22;;
18304;SDS011;9278;52.156;21.048;2023-04-08T11:46:23;8.45;;;5.85;;
18304;SDS011;9278;52.156;21.048;2023-04-08T11:48:58;9.35;;;5.93;;
18304;SDS011;9278;52.156;21.048;2023-04-08T11:51:28;9.15;;;5.63;;
18304;SDS011;9278;52.156;21.048;2023-04-08T11:53:57;8.65;;;5.50;;
18304;SDS011;9278;52.156;21.048;2023-04-08T11:56:25;8.20;;;5.45;;
18304;SDS011;9278;52.156;21.048;2023-04-08T11:58:55;7.30;;;5.10;;
18304;SDS011;9278;52.156;21.048;2023-04-08T12:01:24;8.25;;;5.40;;
18304;SDS011;9278;52.156;21.048;2023-04-08T12:03:56;8.48;;;5.30;;
18304;SDS011;9278;52.156;21.048;2023-04-08T12:06:26;6.30;;;5.05;;
18304;SDS011;9278;52.156;21.048;2023-04-08T12:08:57;7.97;;;5.68;;
18304;SDS011;9278;52.156;21.048;2023-04-08T12:11:25;7.57;;;5.40;;
18304;SDS011;9278;52.156;21.048;2023-04-08T12:13:53;6.53;;;5.22;;
18304;SDS011;9278;52.156;21.048;2023-04-08T12:16:22;6.15;;;4.88;;
18304;SDS011;9278;52.156;21.048;2023-04-08T12:18:51;8.02;;;5.68;;
18304;SDS011;9278;52.156;21.048;2023-04-08T12:21:19;6.50;;;4.90;;
18304;SDS011;9278;52.156;21.048;2023-04-08T12:23:49;7.10;;;4.65;;
18304;SDS011;9278;52.156;21.048;2023-04-08T12:26:18;7.70;;;4.80;;
18304;SDS011;9278;52.156;21.048;2023-04-08T12:28:46;7.60;;;4.95;;
18304;SDS011;9278;52.156;21.048;2023-04-08T12:31:14;7.55;;;5.00;;
18304;SDS011;9278;52.156;21.048;2023-04-08T12:33:43;7.22;;;4.85;;
18304;SDS011;9278;52.156;21.048;2023-04-08T12:36:11;6.53;;;4.80;;
18304;SDS011;9278;52.156;21.048;2023-04-08T12:38:39;7.22;;;5.00;;
18304;SDS011;9278;52.156;21.048;2023-04-08T12:41:09;6.68;;;5.07;;
18304;SDS011;9278;52.156;21.048;2023-04-08T12:43:37;7.38;;;5.28;;
18304;SDS011;9278;52.156;21.048;2023-04-08T12:46:06;6.57;;;5.03;;
18304;SDS011;9278;52.156;21.048;2023-04-08T12:48:34;9.32;;;5.38;;
18304;SDS011;9278;52.156;21.048;2023-04-08T12:51:03;7.75;;;5.22;;
18304;SDS011;9278;52.156;21.048;2023-04-08T12:53:31;7.63;;;5.50;;
18304;SDS011;9278;52.156;21.048;2023-04-08T12:56:00;8.07;;;4.45;;
18304;SDS011;9278;52.156;21.048;2023-04-08T12:58:30;6.55;;;4.60;;
18304;SDS011;9278;52.156;21.048;2023-04-08T13:00:58;9.38;;;5.22;;
18304;SDS011;9278;52.156;21.048;2023-04-08T13:03:26;6.90;;;5.07;;
18304;SDS011;9278;52.156;21.048;2023-04-08T13:05:57;6.20;;;4.90;;
18304;SDS011;9278;52.156;21.048;2023-04-08T13:08:25;5.68;;;4.28;;
18304;SDS011;9278;52.156;21.048;2023-04-08T13:10:53;5.35;;;4.32;;
18304;SDS011;9278;52.156;21.048;2023-04-08T13:13:22;6.05;;;4.70;;
18304;SDS011;9278;52.156;21.048;2023-04-08T13:15:51;6.13;;;4.50;;
18304;SDS011;9278;52.156;21.048;2023-04-08T13:18:19;7.18;;;4.15;;
18304;SDS011;9278;52.156;21.048;2023-04-08T13:20:48;6.38;;;4.13;;
18304;SDS011;9278;52.156;21.048;2023-04-08T13:23:16;7.20;;;4.38;;
18304;SDS011;9278;52.156;21.048;2023-04-08T13:25:45;8.73;;;4.75;;
18304;SDS011;9278;52.156;21.048;2023-04-08T13:28:13;7.18;;;4.70;;
18304;SDS011;9278;52.156;21.048;2023-04-08T13:30:42;8.10;;;4.82;;
18304;SDS011;9278;52.156;21.048;2023-04-08T13:33:11;6.22;;;4.10;;
18304;SDS011;9278;52.156;21.048;2023-04-08T13:35:39;5.10;;;3.83;;
18304;SDS011;9278;52.156;21.048;2023-04-08T13:38:08;7.90;;;4.68;;
18304;SDS011;9278;52.156;21.048;2023-04-08T13:40:36;6.78;;;4.50;;
18304;SDS011;9278;52.156;21.048;2023-04-08T13:43:05;5.57;;;4.20;;
18304;SDS011;9278;52.156;21.048;2023-04-08T13:45:33;6.20;;;4.45;;
18304;SDS011;9278;52.156;21.048;2023-04-08T13:48:02;8.52;;;4.95;;
18304;SDS011;9278;52.156;21.048;2023-04-08T13:50:31;6.68;;;4.45;;
18304;SDS011;9278;52.156;21.048;2023-04-08T13:53:00;5.40;;;4.10;;
18304;SDS011;9278;52.156;21.048;2023-04-08T13:55:28;6.53;;;4.43;;
18304;SDS011;9278;52.156;21.048;2023-04-08T13:57:56;7.50;;;4.57;;
18304;SDS011;9278;52.156;21.048;2023-04-08T14:00:25;6.28;;;4.15;;
18304;SDS011;9278;52.156;21.048;2023-04-08T14:02:53;5.38;;;4.13;;
18304;SDS011;9278;52.156;21.048;2023-04-08T14:05:21;6.88;;;4.63;;
18304;SDS011;9278;52.156;21.048;2023-04-08T14:07:51;5.90;;;4.18;;
18304;SDS011;9278;52.156;21.048;2023-04-08T14:10:19;7.10;;;4.68;;
18304;SDS011;9278;52.156;21.048;2023-04-08T14:12:48;6.22;;;3.92;;
18304;SDS011;9278;52.156;21.048;2023-04-08T14:15:16;6.50;;;4.30;;
18304;SDS011;9278;52.156;21.048;2023-04-08T14:17:44;5.95;;;4.13;;
18304;SDS011;9278;52.156;21.048;2023-04-08T14:20:13;5.50;;;4.15;;
18304;SDS011;9278;52.156;21.048;2023-04-08T14:22:42;5.38;;;4.30;;
18304;SDS011;9278;52.156;21.048;2023-04-08T14:25:11;7.55;;;4.15;;
18304;SDS011;9278;52.156;21.048;2023-04-08T14:27:39;7.25;;;4.20;;
18304;SDS011;9278;52.156;21.048;2023-04-08T14:30:23;4.53;;;3.88;;
18304;SDS011;9278;52.156;21.048;2023-04-08T14:32:52;5.95;;;4.10;;
18304;SDS011;9278;52.156;21.048;2023-04-08T14:35:20;5.55;;;4.10;;
18304;SDS011;9278;52.156;21.048;2023-04-08T14:37:49;6.43;;;4.05;;
18304;SDS011;9278;52.156;21.048;2023-04-08T14:40:18;6.82;;;4.28;;
18304;SDS011;9278;52.156;21.048;2023-04-08T14:42:47;5.57;;;4.10;;
18304;SDS011;9278;52.156;21.048;2023-04-08T14:45:15;7.32;;;4.68;;
18304;SDS011;9278;52.156;21.048;2023-04-08T14:47:43;6.35;;;4.40;;
18304;SDS011;9278;52.156;21.048;2023-04-08T14:50:12;7.97;;;5.00;;
18304;SDS011;9278;52.156;21.048;2023-04-08T14:52:41;6.93;;;4.60;;